Tiempo atmosférico en la estación meteorológica de El Bodón Base Aérea, Salamanca (805 m.)



Fecha
DESCASC
Temp. máxima en grados centígrados (hora)
DESCASC
Temp. mínima en grados centígrados (hora)
DESCASC
Temp. media en grados centígrados
DESCASC
Racha de viento máxima en m/sg (hora)
DESCASC
Velocidad máxima media en intervalos de 10 minutos(hora)
DESCASC
Precipitaciones diarias en mm
DESCASC
Precipitaciones de 00:00 a 06:00 en mm
DESCASC
Precipitaciones de 06:00 a 12:00 en mm
DESCASC
Precipitaciones de 12:00 a 18:00 en mm
DESCASC
Precipitaciones de 18:00 a 24:00 en mm
DESCASC
15-08-2019 32.5 (18:10) 15.6 (08:20) 24.1 8.33 (18:30) 5 (13:50) 0 0 0 0 0
14-08-2019 30.5 (18:10) 9.6 (00:00) 20.1 8.33 (18:40) 4.72 (19:50) 0 0 0 0 0
13-08-2019 27.3 (18:40) 7.8 (00:00) 17.5 8.06 (18:30) 4.17 (20:30) 0 0 0 0 0
12-08-2019 23.4 (17:10) 8.4 (00:00) 15.9 11.39 (13:00) 6.11 (11:10) 0 0 0 0 0
11-08-2019 22 (16:40) 11.9 (00:00) 16.9 11.94 (18:10) 6.94 (16:20) 0.4 0.4 0 0 0
10-08-2019 26.5 (18:10) 11.5 (00:00) 19 8.33 (22:20) 5.28 (22:20) 0 0 0 0 0
09-08-2019 23 (19:40) 15.9 (00:00) 19.4 12.5 (10:20) 7.78 (06:40) 4.8 0 3.6 1.2 0
08-08-2019 28.2 (17:30) 17.9 (00:00) 23.1 13.33 (18:10) 8.89 (13:30) 0 0 0 0 0
07-08-2019 24.9 (18:00) 15.3 (00:00) 20.1 9.72 (17:20) 6.39 (20:10) 0 0 0 0 0
06-08-2019 31.6 (15:40) 12.6 (00:00) 22.1 8.89 (17:10) 6.39 (19:30) 0 0 0 0 0
05-08-2019 31.8 (18:00) 12 (00:00) 21.9 8.89 (16:50) 5.56 (22:50) 0 0 0 0 0
04-08-2019 32.1 (17:50) 12.8 (00:00) 22.4 11.39 (17:50) 5.83 (20:00) 0 0 0 0 0
03-08-2019 32.3 (17:30) 13.1 (00:00) 22.7 10.28 (21:10) 6.67 (21:00) 0 0 0 0 0
02-08-2019 32.1 (17:50) 10.5 (00:00) 21.3 6.94 (17:50) 4.44 (19:00) 0 0 0 0 0
01-08-2019 31.1 (17:50) 11.2 (00:00) 21.2 9.72 (19:30) 6.39 (19:30) 0 0 0 0 0
31-07-2019 28.9 (15:50) 9.7 (00:00) 19.3 7.78 (19:20) 5.56 (19:10) 0 0 0 0 0
30-07-2019 25.5 (17:50) 9.2 (00:00) 17.3 10.28 (17:50) 6.39 (12:30) 0 0 0 0 0
29-07-2019 24.5 (17:00) 10.5 (00:00) 17.5 11.39 (19:10) 6.67 (19:10) 0 0 0 0 0
28-07-2019 28.7 (17:50) 11 (00:00) 19.9 9.44 (16:20) 5.56 (16:20) 0 0 0 0 0
27-07-2019 25.5 (17:40) 12.2 (00:00) 18.8 10.28 (15:00) 6.11 (15:00) 0 0 0 0 0
26-07-2019 24.5 (18:00) 11.8 (00:00) 18.2 10.83 (19:40) 6.67 (19:50) 0 0 0 0 0
25-07-2019 30 (16:40) 13.3 (00:00) 21.7 11.11 (13:30) 7.22 (13:40) 0 0 0 0 0
24-07-2019 32.9 (18:30) 16.8 (00:00) 24.9 11.67 (15:00) 7.22 (15:20) 0 0 0 0 0
23-07-2019 32.9 (18:00) 18.9 (00:00) 25.9 11.94 (15:00) 7.5 (14:50) 6.4 6.4 0 0 0
22-07-2019 36.3 (17:50) 16.6 (00:00) 26.4 12.78 (18:50) 5.83 (18:50) 0 0 0 0 0
21-07-2019 34.7 (17:10) 13.7 (00:00) 24.2 8.06 (15:30) 4.72 (15:40) 0 0 0 0 0
20-07-2019 32.3 (18:30) 14.9 (00:00) 23.6 8.33 (21:20) 6.11 (20:50) 0 0 0 0 0
19-07-2019 33.8 (16:40) 14.3 (00:00) 24 10.28 (15:10) 6.39 (20:00) 0 0 0 0 0

Gráficas

Temp. máximas Temp. mínimas Temp. medias Precipitaciones Rachas de viento máximas Velocidades máximas media en intervalos de 10 minutos

Datos horarios

Fecha y hora oficial Temperatura (ºC) Velocidad del viento (km/h) Dirección del viento Racha (km/h) Dirección de racha Precipitación (mm) Presión (hPa) Tendencia (hPa) Humedad (%)
2019-08-17 23:00:00 23.9 19 Noroeste 31 Noroeste 0 -- -- 59
2019-08-17 22:00:00 26.7 13 Noroeste 23 Oeste 0 -- -- 42
2019-08-17 21:00:00 30.5 12 Oeste 24 Oeste 0 -- -- 29
2019-08-17 20:00:00 32.8 13 Sur 28 Sudoeste 0 -- -- 21
2019-08-17 19:00:00 33.8 10 Oeste 31 Sur 0 -- -- 21
2019-08-17 18:00:00 33.7 14 Sudoeste 31 Sudoeste 0 -- -- 23
2019-08-17 17:00:00 33.6 19 Sudoeste 31 Sudeste 0 -- -- 24
2019-08-17 16:00:00 33.2 9 Noroeste 24 Sudoeste 0 -- -- 24
2019-08-17 15:00:00 31.7 9 Oeste 19 Sudoeste 0 -- -- 26
2019-08-17 14:00:00 29.6 5 Sur 13 Nordeste 0 -- -- 29
2019-08-17 13:00:00 27 6 Norte 18 Nordeste 0 -- -- 36
2019-08-17 12:00:00 24.2 10 Norte 16 Norte 0 -- -- 47
2019-08-17 11:00:00 22.1 8 Norte 12 Norte 0 -- -- 54
2019-08-17 10:00:00 19 4 Norte 8 Norte 0 -- -- 63
2019-08-17 09:00:00 14.3 3 Sur 10 Sur 0 -- -- 80
2019-08-17 08:00:00 11.9 7 Sur 15 Sudeste 0 -- -- 87
2019-08-17 07:00:00 12.2 9 Sur 13 Sudeste 0 -- -- 87
2019-08-17 06:00:00 14.9 2 Norte 5 Noroeste 0 -- -- 75
2019-08-17 05:00:00 14.9 4 Sur 5 Sur 0 -- -- 77
2019-08-17 04:00:00 16.2 0 Calma 9 Sudeste 0 -- -- 72
2019-08-17 03:00:00 17.3 4 Sur 7 Sudeste 0 -- -- 67
2019-08-17 02:00:00 18.5 2 Oeste 11 Noroeste 0 -- -- 62
2019-08-17 01:00:00 19.8 8 Noroeste 12 Oeste 0 -- -- 58
2019-08-17 00:00:00 21.4 2 Oeste 18 Noroeste 0 -- -- 53
2019-08-16 23:00:00 23.3 17 Noroeste 26 Noroeste 0 -- -- 49
2019-08-16 22:00:00 25.3 14 Noroeste 30 Noroeste 0 -- -- 48
2019-08-16 21:00:00 28.4 17 Noroeste 29 Noroeste 0 -- -- 43
2019-08-16 20:00:00 31 18 Noroeste 25 Noroeste 0 -- -- 33
2019-08-16 19:00:00 32.3 15 Noroeste 28 Noroeste 0 -- -- 27
2019-08-16 18:00:00 32.6 13 Noroeste 30 Norte 0 -- -- 23
2019-08-16 17:00:00 32.6 8 Noroeste 26 Nordeste 0 -- -- 26
2019-08-16 16:00:00 31.8 5 Sudoeste 25 Noroeste 0 -- -- 30
2019-08-16 15:00:00 30.7 11 Noroeste 23 Oeste 0 -- -- 30
2019-08-16 14:00:00 29.6 10 Noroeste 19 Oeste 0 -- -- 38
2019-08-16 13:00:00 27.7 6 Norte 15 Norte 0 -- -- 46
2019-08-16 12:00:00 24.7 8 Norte 15 Norte 0 -- -- 51
2019-08-16 11:00:00 22.4 8 Norte 15 Oeste 0 -- -- 60
2019-08-16 10:00:00 20.6 8 Norte 12 Norte 0 -- -- 72
2019-08-16 09:00:00 15.8 6 Sur 11 Sur 0 -- -- 89
2019-08-16 08:00:00 13.9 8 Sur 10 Sudeste 0 -- -- 90
2019-08-16 07:00:00 15 0 Calma 8 Sudeste 0 -- -- 88
2019-08-16 06:00:00 15.8 5 Sur 6 Sur 0 -- -- 85
2019-08-16 05:00:00 17.8 4 Noroeste 5 Noroeste 0 -- -- 79
2019-08-16 04:00:00 18.4 3 Noroeste 4 Noroeste 0 -- -- 76
2019-08-16 03:00:00 19.6 4 Noroeste 6 Noroeste 0 -- -- 70
2019-08-16 02:00:00 20.7 4 Noroeste 12 Noroeste 0 -- -- 67
2019-08-16 01:00:00 21.4 9 Noroeste 15 Noroeste 0 -- -- 64
2019-08-16 00:00:00 22.9 10 Noroeste 19 Noroeste 0 -- -- 58
2019-08-15 23:00:00 24.6 10 Noroeste 22 Noroeste 0 -- -- 47
2019-08-15 22:00:00 26.2 8 Noroeste 18 Noroeste 0 -- -- 39
2019-08-15 21:00:00 29.2 15 Norte 23 Norte 0 -- -- 34
2019-08-15 20:00:00 31.1 13 Noroeste 28 Norte 0 -- -- 29
2019-08-15 19:00:00 31.9 16 Norte 30 Noroeste 0 -- -- 27
2019-08-15 18:00:00 32.4 12 Noroeste 25 Nordeste 0 -- -- 25
2019-08-15 17:00:00 31.9 7 Nordeste 28 Norte 0 -- -- 26
2019-08-15 16:00:00 31.3 9 Nordeste 29 Noroeste 0 -- -- 26
2019-08-15 15:00:00 30.4 12 Norte 26 Nordeste 0 -- -- 27
2019-08-15 14:00:00 29.6 13 Norte 27 Norte 0 -- -- 28
2019-08-15 13:00:00 27.9 10 Norte 27 Norte 0 -- -- 34
2019-08-15 12:00:00 24.7 13 Norte 22 Norte 0 -- -- 51
2019-08-15 11:00:00 21.9 11 Norte 21 Norte 0 -- -- 66
2019-08-15 10:00:00 19.6 10 Norte 14 Norte 0 -- -- 74
2019-08-15 09:00:00 16.9 3 Norte 5 Noroeste 0 -- -- 84
2019-08-15 08:00:00 15.8 0 Calma 5 Norte 0 -- -- 85
2019-08-15 07:00:00 16.7 3 Norte 12 Norte 0 -- -- 82
2019-08-15 06:00:00 17.1 6 Norte 13 Norte 0 -- -- 80
2019-08-15 05:00:00 17.3 2 Nordeste 9 Norte 0 -- -- 82
2019-08-15 04:00:00 19 8 Norte 17 Norte 0 -- -- 76
2019-08-15 03:00:00 20.1 8 Norte 15 Norte 0 -- -- 72
2019-08-15 02:00:00 20.7 10 Norte 17 Norte 0 -- -- 70
2019-08-15 01:00:00 21.3 7 Norte 17 Noroeste 0 -- -- 67
2019-08-15 00:00:00 22.7 14 Noroeste 19 Noroeste 0 -- -- 63
2019-08-14 23:00:00 24 10 Noroeste 18 Noroeste 0 -- -- 55
2019-08-14 22:00:00 25.5 12 Noroeste 19 Noroeste 0 -- -- 44
2019-08-14 21:00:00 28.2 14 Norte 22 Norte 0 -- -- 38
2019-08-14 20:00:00 29.5 16 Noroeste 28 Noroeste 0 -- -- 34
2019-08-14 19:00:00 30.1 12 Norte 30 Noroeste 0 -- -- 32
2019-08-14 18:00:00 30.3 12 Norte 26 Norte 0 -- -- 30
2019-08-14 17:00:00 30.3 13 Noroeste 28 Noroeste 0 -- -- 29
2019-08-14 16:00:00 29.6 11 Norte 26 Norte 0 -- -- 29
2019-08-14 15:00:00 28.9 9 Noroeste 21 Noroeste 0 -- -- 28
2019-08-14 14:00:00 27.5 5 Norte 17 Norte 0 -- -- 29
2019-08-14 13:00:00 25.6 7 Norte 17 Norte 0 -- -- 32
2019-08-14 12:00:00 23 9 Norte 19 Norte 0 -- -- 38
2019-08-14 11:00:00 21.1 4 Noroeste 8 Norte 0 -- -- 45
2019-08-14 10:00:00 17.8 5 Norte 9 Sur 0 -- -- 58
2019-08-14 09:00:00 12.2 9 Sur 12 Sur 0 -- -- 73
2019-08-14 08:00:00 9.6 9 Sur 15 Sudeste 0 -- -- 78
2019-08-14 07:00:00 10.2 11 Sur 13 Sur 0 -- -- 74
2019-08-14 06:00:00 10.9 10 Sur 15 Sur 0 -- -- 70
2019-08-14 05:00:00 11.1 11 Sur 14 Sur 0 -- -- 67
2019-08-14 04:00:00 15.7 5 Noroeste 13 Noroeste 0 -- -- 55
2019-08-14 03:00:00 15.2 6 Noroeste 9 Norte 0 -- -- 53
2019-08-14 02:00:00 17.4 8 Norte 15 Noroeste 0 -- -- 44
2019-08-14 01:00:00 18.1 6 Noroeste 12 Noroeste 0 -- -- 37
2019-08-14 00:00:00 19.9 6 Norte 12 Norte 0 -- -- 32
2019-08-13 23:00:00 21 5 Norte 10 Norte 0 -- -- 30
2019-08-13 22:00:00 21.7 6 Noroeste 21 Noroeste 0 -- -- 29
2019-08-13 21:00:00 24.9 14 Norte 24 Norte 0 -- -- 26
2019-08-13 20:00:00 26.3 14 Norte 24 Norte 0 -- -- 24
2019-08-13 19:00:00 26.9 14 Noroeste 29 Norte 0 -- -- 23
2019-08-13 18:00:00 26.8 13 Norte 26 Noroeste 0 -- -- 23
2019-08-13 17:00:00 26.9 8 Nordeste 26 Norte 0 -- -- 22
2019-08-13 16:00:00 26.4 6 Nordeste 22 Nordeste 0 -- -- 24
2019-08-13 15:00:00 25.3 6 Norte 24 Nordeste 0 -- -- 27
2019-08-13 14:00:00 24.4 11 Norte 24 Nordeste 0 -- -- 30
2019-08-13 13:00:00 22.9 9 Norte 25 Nordeste 0 -- -- 38
2019-08-13 12:00:00 18.8 10 Norte 19 Nordeste 0 -- -- 49
2019-08-13 11:00:00 15.3 9 Norte 13 Norte 0 -- -- 58
2019-08-13 10:00:00 12.8 10 Norte 16 Norte 0 -- -- 65
2019-08-13 09:00:00 10 4 Noroeste 7 Noroeste 0 -- -- 72
2019-08-13 08:00:00 7.8 2 Sudoeste 8 Sudeste 0 -- -- 77
2019-08-13 07:00:00 8.3 3 Oeste 11 Noroeste 0 -- -- 72
2019-08-13 06:00:00 9.9 5 Noroeste 9 Noroeste 0 -- -- 64
2019-08-13 05:00:00 11.7 8 Noroeste 12 Noroeste 0 -- -- 57
2019-08-13 04:00:00 12.4 9 Norte 16 Noroeste 0 -- -- 52
2019-08-13 03:00:00 13.4 7 Norte 14 Norte 0 -- -- 47
2019-08-13 02:00:00 14.7 9 Norte 15 Noroeste 0 -- -- 43
2019-08-13 01:00:00 15.8 9 Norte 14 Nordeste 0 -- -- 40
2019-08-13 00:00:00 16.9 9 Nordeste 17 Nordeste 0 -- -- 37
2019-08-12 23:00:00 18 8 Norte 14 Norte 0 -- -- 35
2019-08-12 22:00:00 19.8 10 Norte 20 Norte 0 -- -- 33
2019-08-12 21:00:00 21.1 13 Norte 27 Norte 0 -- -- 29
2019-08-12 20:00:00 22 15 Norte 28 Norte 0 -- -- 28
2019-08-12 19:00:00 22.5 15 Nordeste 27 Nordeste 0 -- -- 28
2019-08-12 18:00:00 23.3 17 Norte 35 Norte 0 -- -- 30
2019-08-12 17:00:00 23.3 16 Nordeste 33 Norte 0 -- -- 29
2019-08-12 16:00:00 22.5 13 Nordeste 35 Norte 0 -- -- 32
2019-08-12 15:00:00 21.3 17 Nordeste 35 Norte 0 -- -- 35
2019-08-12 14:00:00 20.1 18 Norte 38 Norte 0 -- -- 39
2019-08-12 13:00:00 18.7 15 Nordeste 41 Nordeste 0 -- -- 45
2019-08-12 12:00:00 16.9 18 Nordeste 40 Norte 0 -- -- 51
2019-08-12 11:00:00 15.2 19 Nordeste 37 Nordeste 0 -- -- 59
2019-08-12 10:00:00 12.1 17 Norte 23 Norte 0 -- -- 74
2019-08-12 09:00:00 10 8 Norte 18 Norte 0 -- -- 86
2019-08-12 08:00:00 8.4 7 Norte 10 Norte 0 -- -- 89
2019-08-12 07:00:00 8.5 8 Norte 13 Norte 0 -- -- 87
2019-08-12 06:00:00 9.3 9 Norte 12 Noroeste 0 -- -- 84
2019-08-12 05:00:00 9.9 7 Norte 9 Norte 0 -- -- 82
2019-08-12 04:00:00 10.5 4 Norte 9 Noroeste 0 -- -- 79
2019-08-12 03:00:00 11.2 7 Norte 12 Norte 0 -- -- 77
2019-08-12 02:00:00 11.9 8 Norte 18 Noroeste 0 -- -- 74
2019-08-12 01:00:00 12.8 12 Noroeste 20 Noroeste 0 -- -- 70
2019-08-12 00:00:00 13.9 13 Noroeste 27 Noroeste 0 -- -- 65
2019-08-11 23:00:00 15.3 19 Noroeste 30 Noroeste 0 -- -- 61
2019-08-11 22:00:00 16.9 16 Noroeste 29 Noroeste 0 -- -- 51
2019-08-11 21:00:00 19 18 Noroeste 32 Noroeste 0 -- -- 45
2019-08-11 20:00:00 20.4 21 Noroeste 31 Noroeste 0 -- -- 36
2019-08-11 19:00:00 21.4 18 Noroeste 43 Noroeste 0 -- -- 36
2019-08-11 18:00:00 21.6 23 Norte 41 Noroeste 0 -- -- 36
2019-08-11 17:00:00 21.9 22 Noroeste 38 Oeste 0 -- -- 35
2019-08-11 16:00:00 21.6 19 Noroeste 39 Noroeste 0 -- -- 35
2019-08-11 15:00:00 20.4 18 Noroeste 36 Noroeste 0 -- -- 39
2019-08-11 14:00:00 18.9 17 Noroeste 37 Norte 0 -- -- 49
2019-08-11 13:00:00 17.6 16 Norte 26 Noroeste 0 -- -- 55
2019-08-11 12:00:00 16.5 14 Norte 23 Norte 0 -- -- 68
2019-08-11 11:00:00 14.3 18 Noroeste 25 Noroeste 0 -- -- 79
2019-08-11 10:00:00 13.4 12 Norte 21 Oeste 0 -- -- 86
2019-08-11 09:00:00 12.2 12 Noroeste 17 Noroeste 0 -- -- 89
2019-08-11 08:00:00 12.1 10 Norte 15 Norte 0 -- -- 91
2019-08-11 07:00:00 12.1 11 Noroeste 20 Noroeste 0 -- -- 91
2019-08-11 06:00:00 11.9 12 Noroeste 18 Noroeste 0 -- -- 91
2019-08-11 05:00:00 12.8 13 Noroeste 22 Noroeste 0 -- -- 91
2019-08-11 04:00:00 14.3 10 Este 18 Oeste 0.4 -- -- 84
2019-08-11 03:00:00 15.6 6 Oeste 16 Oeste 0 -- -- 76
2019-08-11 02:00:00 16.2 9 Noroeste 22 Noroeste 0 -- -- 69
2019-08-11 01:00:00 17.1 15 Noroeste 22 Noroeste 0 -- -- 66
2019-08-11 00:00:00 18 15 Noroeste 27 Noroeste 0 -- -- 64
2019-08-10 23:00:00 19.3 15 Noroeste 30 Noroeste 0 -- -- 55
2019-08-10 22:00:00 20.7 13 Noroeste 26 Noroeste 0 -- -- 49
2019-08-10 21:00:00 22.7 15 Noroeste 27 Noroeste 0 -- -- 45
2019-08-10 20:00:00 24.6 12 Norte 24 Norte 0 -- -- 37
2019-08-10 19:00:00 26.1 10 Oeste 23 Sudoeste 0 -- -- 35
2019-08-10 18:00:00 26.3 10 Oeste 23 Sudoeste 0 -- -- 37
2019-08-10 17:00:00 25.6 8 Noroeste 28 Noroeste 0 -- -- 36
2019-08-10 16:00:00 24.8 9 Noroeste 21 Noroeste 0 -- -- 39
2019-08-10 15:00:00 23.2 11 Noroeste 20 Noroeste 0 -- -- 44
2019-08-10 14:00:00 21.6 6 Noroeste 19 Este 0 -- -- 50
2019-08-10 13:00:00 20.2 11 Norte 19 Noroeste 0 -- -- 56
2019-08-10 12:00:00 18.2 9 Norte 18 Norte 0 -- -- 65
2019-08-10 11:00:00 16.6 7 Norte 18 Norte 0 -- -- 78
2019-08-10 10:00:00 15.4 9 Norte 15 Norte 0 -- -- 85
2019-08-10 09:00:00 13.7 3 Norte 6 Noroeste 0 -- -- 93
2019-08-10 08:00:00 12.1 3 Norte 7 Noroeste 0 -- -- 94
2019-08-10 07:00:00 11.6 2 Sudoeste 6 Sur 0 -- -- 94
2019-08-10 06:00:00 11.8 6 Sur 9 Sur 0 -- -- 93
2019-08-10 05:00:00 12 4 Sur 6 Sur 0 -- -- 92
2019-08-10 04:00:00 12.3 0 Calma 3 Sur -- -- -- 90
2019-08-10 03:00:00 13.1 0 Calma 5 Noroeste 0 -- -- 86
2019-08-10 02:00:00 14.2 4 Noroeste 12 Noroeste 0 -- -- 82
2019-08-10 01:00:00 14.8 10 Noroeste 13 Noroeste 0 -- -- 80
2019-08-10 00:00:00 15.9 8 Noroeste 15 Noroeste 0 -- -- 74
2019-08-09 23:00:00 17.3 13 Noroeste 23 Noroeste 0 -- -- 67
2019-08-09 22:00:00 18.8 17 Noroeste 26 Oeste 0 -- -- 60
2019-08-09 21:00:00 21 15 Noroeste 22 Noroeste 0 -- -- 53
2019-08-09 20:00:00 22.7 14 Noroeste 25 Noroeste 0 -- -- 48
2019-08-09 19:00:00 22.2 8 Sur 17 Sur 0 -- -- 65
2019-08-09 18:00:00 19.9 12 Sur 23 Sur 0 -- -- 74
2019-08-09 17:00:00 16.4 17 Sur 29 Sur 0.8 -- -- 85
2019-08-09 16:00:00 18.2 19 Sur 34 Sudoeste 0.2 -- -- 78
2019-08-09 15:00:00 20.7 19 Sudoeste 38 Sur 0 -- -- 67
2019-08-09 14:00:00 20.6 28 Sur 39 Sur 0.2 -- -- 78
2019-08-09 13:00:00 20.5 20 Sur 36 Sur 0 -- -- 86
2019-08-09 12:00:00 19.3 22 Sudoeste 36 Sudoeste 1.2 -- -- 92
2019-08-09 11:00:00 17.8 9 Oeste 45 Noroeste 2.4 -- -- 93
2019-08-09 10:00:00 20.3 20 Sur 34 Sur 0 -- -- 87
2019-08-09 09:00:00 19.7 20 Sur 32 Sur 0 -- -- 89
2019-08-09 08:00:00 19.2 21 Sur 33 Sur 0 -- -- 91
2019-08-09 07:00:00 19 24 Sur 40 Sur 0 -- -- 89
2019-08-09 06:00:00 19 27 Sur 39 Sur 0 -- -- 89
2019-08-09 05:00:00 19 24 Sur 34 Sur 0 -- -- 88
2019-08-09 04:00:00 18.9 12 Sur 28 Sur 0 -- -- 87
2019-08-09 03:00:00 19.1 16 Sur 31 Sur 0 -- -- 83
2019-08-09 02:00:00 19.8 24 Sur 33 Sudoeste 0 -- -- 78
2019-08-09 01:00:00 20.4 22 Sudoeste 35 Sudoeste 0 -- -- 76
2019-08-09 00:00:00 21.2 18 Sur 32 Sur 0 -- -- 71
2019-08-08 23:00:00 21.9 18 Sur 27 Sur 0 -- -- 66
2019-08-08 22:00:00 23 17 Sur 34 Sudoeste 0 -- -- 61
2019-08-08 21:00:00 24.5 23 Sudoeste 36 Sudoeste 0 -- -- 56
2019-08-08 20:00:00 25.6 23 Sudoeste 44 Sudoeste 0 -- -- 54
2019-08-08 19:00:00 27 28 Sudoeste 48 Sur 0 -- -- 51
2019-08-08 18:00:00 27.5 27 Sur 45 Sudoeste 0 -- -- 50
2019-08-08 17:00:00 27.3 31 Sur 45 Sur 0 -- -- 51
2019-08-08 16:00:00 27.4 26 Sur 42 Sur 0 -- -- 51
2019-08-08 15:00:00 26.1 23 Sur 45 Sur 0 -- -- 57
2019-08-08 14:00:00 25.5 27 Sur 43 Sur 0 -- -- 58
2019-08-08 13:00:00 24.8 24 Sudoeste 40 Sur 0 -- -- 60
2019-08-08 12:00:00 22.5 18 Sur 35 Sur 0 -- -- 72
2019-08-08 11:00:00 21.8 21 Sur 31 Sur 0 -- -- 76
2019-08-08 10:00:00 19.9 21 Sur 31 Sur 0 -- -- 84
2019-08-08 09:00:00 19.6 18 Sur 26 Sudoeste 0 -- -- 85
2019-08-08 08:00:00 19 13 Sur 28 Sur 0 -- -- 79
2019-08-08 07:00:00 19.2 18 Sur 28 Sur 0 -- -- 74
2019-08-08 06:00:00 19.3 16 Sur 25 Sur 0 -- -- 72
2019-08-08 05:00:00 18.8 14 Sur 22 Sur 0 -- -- 74
2019-08-08 04:00:00 18.3 12 Sur 19 Sur 0 -- -- 77
2019-08-08 03:00:00 18.3 13 Sur 18 Sur 0 -- -- 76
2019-08-08 02:00:00 18.2 8 Sur 18 Sur 0 -- -- 71
2019-08-08 01:00:00 19.1 12 Sur 21 Sur 0 -- -- 68
2019-08-08 00:00:00 19.3 17 Sur 22 Sur 0 -- -- 69
2019-08-07 23:00:00 19.9 10 Sur 18 Sudeste 0 -- -- 68
2019-08-07 22:00:00 21.1 12 Sur 25 Sur 0 -- -- 65
2019-08-07 21:00:00 22.3 17 Sur 31 Sur 0 -- -- 61
2019-08-07 20:00:00 23.7 21 Sur 32 Sur 0 -- -- 57
2019-08-07 19:00:00 23.9 18 Sur 27 Sur 0 -- -- 55
2019-08-07 18:00:00 24.9 18 Sur 35 Sur 0 -- -- 51
2019-08-07 17:00:00 24.1 17 Sudoeste 30 Sur 0 -- -- 52
2019-08-07 16:00:00 22.9 16 Sur 28 Sudoeste 0 -- -- 55
2019-08-07 15:00:00 23.1 20 Sur 30 Sudoeste 0 -- -- 50
2019-08-07 14:00:00 23.2 12 Sur 19 Sur 0 -- -- 58
2019-08-07 13:00:00 21.8 5 Sur 12 Sur 0 -- -- 56
2019-08-07 12:00:00 20.2 5 Sur 9 Sur 0 -- -- 71
2019-08-07 11:00:00 19 3 Oeste 6 Noroeste 0 -- -- 79
2019-08-07 10:00:00 17.5 3 Oeste 6 Sudeste 0 -- -- 86
2019-08-07 09:00:00 16 0 Calma 5 Norte 0 -- -- 92
2019-08-07 08:00:00 15.3 3 Norte 4 Noroeste 0 -- -- 90
2019-08-07 07:00:00 15.7 4 Noroeste 8 Noroeste 0 -- -- 89
2019-08-07 06:00:00 16.5 5 Noroeste 9 Noroeste 0 -- -- 87
2019-08-07 05:00:00 17.9 7 Noroeste 10 Noroeste 0 -- -- 82
2019-08-07 04:00:00 18.5 5 Noroeste 9 Oeste 0 -- -- 80
2019-08-07 03:00:00 18.8 3 Norte 7 Noroeste 0 -- -- 80
2019-08-07 02:00:00 19.1 3 Noroeste 8 Noroeste 0 -- -- 78
2019-08-07 01:00:00 19.6 3 Oeste 10 Noroeste 0 -- -- 77
2019-08-07 00:00:00 20.1 6 Oeste 14 Noroeste 0 -- -- 75
2019-08-06 23:00:00 20.8 6 Oeste 15 Noroeste 0 -- -- 71
2019-08-06 22:00:00 21.5 14 Noroeste 23 Noroeste 0 -- -- 69
2019-08-06 21:00:00 22.9 17 Noroeste 26 Noroeste 0 -- -- 61
2019-08-06 20:00:00 24.7 18 Noroeste 31 Noroeste 0 -- -- 54
2019-08-06 19:00:00 27.6 21 Noroeste 27 Noroeste 0 -- -- 43
2019-08-06 18:00:00 29.9 11 Oeste 32 Sur 0 -- -- 38
2019-08-06 17:00:00 30.8 17 Sur 30 Sur 0 -- -- 34
2019-08-06 16:00:00 31 18 Sudoeste 30 Sudoeste 0 -- -- 35
2019-08-06 15:00:00 31.4 12 Sur 29 Sudeste 0 -- -- 33
2019-08-06 14:00:00 29.4 9 Sudeste 22 Sudoeste 0 -- -- 38
2019-08-06 13:00:00 27.7 8 Noroeste 19 Norte 0 -- -- 42
2019-08-06 12:00:00 25.5 6 Norte 14 Norte 0 -- -- 49
2019-08-06 11:00:00 23.1 5 Norte 12 Noroeste 0 -- -- 58
2019-08-06 10:00:00 19.7 2 Norte 10 Sur 0 -- -- 69
2019-08-06 09:00:00 16.1 6 Sudeste 12 Sur 0 -- -- 83
2019-08-06 08:00:00 12.7 6 Sur 13 Sudeste 0 -- -- 89
2019-08-06 07:00:00 13.3 9 Sur 12 Sudeste 0 -- -- 88
2019-08-06 06:00:00 15 4 Sudeste 13 Noroeste 0 -- -- 82
2019-08-06 05:00:00 15.5 5 Oeste 8 Noroeste 0 -- -- 79
2019-08-06 04:00:00 16.8 3 Sur 5 Sudeste 0 -- -- 74
2019-08-06 03:00:00 17.2 0 Calma 5 Sudoeste 0 -- -- 70
2019-08-06 02:00:00 18.9 3 Noroeste 12 Noroeste 0 -- -- 65
2019-08-06 01:00:00 20 6 Oeste 18 Noroeste 0 -- -- 62
2019-08-06 00:00:00 21.5 14 Noroeste 23 Noroeste 0 -- -- 59
2019-08-05 23:00:00 23.6 14 Noroeste 29 Norte 0 -- -- 52
2019-08-05 22:00:00 25.8 16 Noroeste 24 Noroeste 0 -- -- 45
2019-08-05 21:00:00 28.4 17 Noroeste 25 Noroeste 0 -- -- 38
2019-08-05 20:00:00 30.2 17 Noroeste 27 Noroeste 0 -- -- 33
2019-08-05 19:00:00 31.2 17 Noroeste 30 Noroeste 0 -- -- 29
2019-08-05 18:00:00 31.8 10 Noroeste 30 Noroeste 0 -- -- 28
2019-08-05 17:00:00 31.7 16 Oeste 32 Noroeste 0 -- -- 28
2019-08-05 16:00:00 31.1 9 Noroeste 26 Oeste 0 -- -- 26
2019-08-05 15:00:00 30.1 10 Oeste 19 Noroeste 0 -- -- 32
2019-08-05 14:00:00 27.8 4 Sur 15 Norte 0 -- -- 42
2019-08-05 13:00:00 25.2 6 Nordeste 15 Norte 0 -- -- 53
2019-08-05 12:00:00 22.5 8 Norte 14 Nordeste 0 -- -- 62
2019-08-05 11:00:00 20.2 8 Noroeste 13 Noroeste 0 -- -- 71
2019-08-05 10:00:00 17.7 3 Norte 8 Nordeste 0 -- -- 81
2019-08-05 09:00:00 13.9 5 Sur 8 Sur 0 -- -- 94
2019-08-05 08:00:00 12 6 Sur 8 Sur 0 -- -- 94
2019-08-05 07:00:00 12.5 3 Sur 8 Sur 0 -- -- 93
2019-08-05 06:00:00 13.3 7 Sur 9 Sudeste 0 -- -- 92
2019-08-05 05:00:00 14.6 4 Norte 7 Norte 0 -- -- 89
2019-08-05 04:00:00 15.8 5 Norte 7 Norte 0 -- -- 85
2019-08-05 03:00:00 16.3 2 Norte 4 Sudoeste 0 -- -- 84
2019-08-05 02:00:00 17.2 0 Calma 4 Noroeste 0 -- -- 80
2019-08-05 01:00:00 18.1 3 Noroeste 7 Noroeste 0 -- -- 77
2019-08-05 00:00:00 19.4 6 Noroeste 12 Noroeste 0 -- -- 73
2019-08-04 23:00:00 21.7 9 Noroeste 21 Noroeste 0 -- -- 63
2019-08-04 22:00:00 24 13 Noroeste 21 Noroeste 0 -- -- 52
2019-08-04 21:00:00 27 16 Noroeste 26 Noroeste 0 -- -- 44
2019-08-04 20:00:00 29.2 21 Noroeste 31 Noroeste 0 -- -- 38
2019-08-04 19:00:00 31.9 18 Sudoeste 28 Sur 0 -- -- 30
2019-08-04 18:00:00 31.8 14 Sudoeste 41 Noroeste 0 -- -- 28
2019-08-04 17:00:00 31.6 20 Sur 36 Sur 0 -- -- 29
2019-08-04 16:00:00 31 20 Sur 39 Sur 0 -- -- 33
2019-08-04 15:00:00 30.8 17 Sudoeste 32 Sur 0 -- -- 32
2019-08-04 14:00:00 29.7 12 Sudoeste 23 Sur 0 -- -- 35
2019-08-04 13:00:00 27.2 14 Sudoeste 22 Sudoeste 0 -- -- 43
2019-08-04 12:00:00 24.6 4 Oeste 9 Noroeste 0 -- -- 51
2019-08-04 11:00:00 21.4 4 Nordeste 12 Norte 0 -- -- 64
2019-08-04 10:00:00 19.4 4 Norte 9 Norte 0 -- -- 71
2019-08-04 09:00:00 15.4 3 Sur 11 Sudeste 0 -- -- 88
2019-08-04 08:00:00 12.8 8 Sur 12 Sur 0 -- -- 91
2019-08-04 07:00:00 13.5 5 Sur 8 Sur 0 -- -- 88
2019-08-04 06:00:00 14.9 4 Sur 5 Sur 0 -- -- 85
2019-08-04 05:00:00 15.5 0 Calma 7 Sur 0 -- -- 84
2019-08-04 04:00:00 16.4 3 Sur 5 Sur 0 -- -- 79
2019-08-04 03:00:00 16.9 4 Sur 8 Noroeste 0 -- -- 75
2019-08-04 02:00:00 18.4 4 Noroeste 9 Noroeste 0 -- -- 70
2019-08-04 01:00:00 19.7 4 Noroeste 12 Noroeste 0 -- -- 65
2019-08-04 00:00:00 21.2 8 Noroeste 14 Noroeste 0 -- -- 60
2019-08-03 23:00:00 23.1 12 Noroeste 26 Noroeste 0 -- -- 52
2019-08-03 22:00:00 25 15 Noroeste 37 Noroeste 0 -- -- 50
2019-08-03 21:00:00 28.3 24 Noroeste 33 Oeste 0 -- -- 41
2019-08-03 20:00:00 31.2 14 Noroeste 25 Noroeste 0 -- -- 29
2019-08-03 19:00:00 31.9 12 Norte 20 Norte 0 -- -- 29
2019-08-03 18:00:00 31.6 3 Sur 18 Oeste 0 -- -- 32
2019-08-03 17:00:00 31.6 12 Oeste 27 Oeste 0 -- -- 30
2019-08-03 16:00:00 30 6 Nordeste 22 Oeste 0 -- -- 32
2019-08-03 15:00:00 31.1 6 Este 23 Noroeste 0 -- -- 32
2019-08-03 14:00:00 30 8 Noroeste 18 Oeste 0 -- -- 36
2019-08-03 13:00:00 28.2 9 Norte 19 Noroeste 0 -- -- 42
2019-08-03 12:00:00 25.8 6 Nordeste 14 Nordeste 0 -- -- 50
2019-08-03 11:00:00 23.3 4 Noroeste 10 Noroeste 0 -- -- 57
2019-08-03 10:00:00 20.1 2 Sur 10 Sudeste 0 -- -- 69
2019-08-03 09:00:00 15.9 5 Sur 10 Sur 0 -- -- 84
2019-08-03 08:00:00 13.6 7 Sur 13 Sur 0 -- -- 90
2019-08-03 07:00:00 13.5 10 Sur 14 Sur 0 -- -- 88
2019-08-03 06:00:00 14.1 6 Sur 10 Sur 0 -- -- 85
2019-08-03 05:00:00 15.6 8 Sur 10 Sudeste 0 -- -- 80
2019-08-03 04:00:00 18 3 Sudoeste 7 Oeste 0 -- -- 74
2019-08-03 03:00:00 18.7 4 Oeste 6 Oeste 0 -- -- 72
2019-08-03 02:00:00 20 4 Sudoeste 8 Sudoeste 0 -- -- 68
2019-08-03 01:00:00 21.4 3 Oeste 9 Noroeste 0 -- -- 63
2019-08-03 00:00:00 22.9 8 Noroeste 21 Oeste 0 -- -- 58
2019-08-02 23:00:00 24.7 9 Oeste 18 Oeste 0 -- -- 48
2019-08-02 22:00:00 26.7 6 Norte 21 Noroeste 0 -- -- 31
2019-08-02 21:00:00 29.6 13 Noroeste 21 Noroeste 0 -- -- 29
2019-08-02 20:00:00 31 15 Noroeste 22 Norte 0 -- -- 25
2019-08-02 19:00:00 32 16 Noroeste 24 Noroeste 0 -- -- 23
2019-08-02 18:00:00 31.8 9 Sur 25 Noroeste 0 -- -- 24
2019-08-02 17:00:00 31.8 10 Oeste 21 Sudoeste 0 -- -- 24
2019-08-02 16:00:00 30.9 8 Norte 23 Oeste 0 -- -- 28
2019-08-02 15:00:00 29.5 7 Noroeste 19 Norte 0 -- -- 34
2019-08-02 14:00:00 27.6 10 Norte 17 Norte 0 -- -- 39
2019-08-02 13:00:00 24.7 8 Norte 16 Norte 0 -- -- 46
2019-08-02 12:00:00 22.4 6 Norte 12 Noroeste 0 -- -- 52
2019-08-02 11:00:00 19.6 5 Norte 11 Norte 0 -- -- 59
2019-08-02 10:00:00 17.3 4 Norte 10 Norte 0 -- -- 66
2019-08-02 09:00:00 13.3 3 Sur 7 Sur 0 -- -- 79
2019-08-02 08:00:00 10.8 5 Sur 10 Sur 0 -- -- 85
2019-08-02 07:00:00 11.3 4 Sur 10 Sur 0 -- -- 84
2019-08-02 06:00:00 11.9 7 Sur 10 Sur 0 -- -- 82
2019-08-02 05:00:00 14.1 4 Norte 6 Norte 0 -- -- 75
2019-08-02 04:00:00 14.8 3 Sudeste 5 Sur 0 -- -- 72
2019-08-02 03:00:00 15.9 0 Calma 5 Sudoeste 0 -- -- 68
2019-08-02 02:00:00 16.5 2 Sur 4 Sur 0 -- -- 65
2019-08-02 01:00:00 18 2 Oeste 6 Norte 0 -- -- 59
2019-08-02 00:00:00 19.4 5 Noroeste 17 Noroeste 0 -- -- 53
2019-08-01 23:00:00 21.2 12 Noroeste 26 Oeste 0 -- -- 49
2019-08-01 22:00:00 23.3 14 Noroeste 27 Noroeste 0 -- -- 41
2019-08-01 21:00:00 26.2 21 Noroeste 29 Noroeste 0 -- -- 34
2019-08-01 20:00:00 28.6 18 Noroeste 35 Noroeste 0 -- -- 30
2019-08-01 19:00:00 30.4 15 Noroeste 30 Noroeste 0 -- -- 25
2019-08-01 18:00:00 30.8 9 Norte 26 Oeste 0 -- -- 26
2019-08-01 17:00:00 30.4 9 Norte 33 Noroeste 0 -- -- 27
2019-08-01 16:00:00 30 15 Oeste 34 Sudoeste 0 -- -- 26
2019-08-01 15:00:00 29.3 12 Noroeste 27 Oeste 0 -- -- 27
2019-08-01 14:00:00 27.4 7 Norte 24 Nordeste 0 -- -- 34
2019-08-01 13:00:00 26 7 Nordeste 17 Norte 0 -- -- 39
2019-08-01 12:00:00 24.2 6 Nordeste 15 Norte 0 -- -- 45
2019-08-01 11:00:00 22 5 Noroeste 9 Norte 0 -- -- 51
2019-08-01 10:00:00 19.4 4 Este 10 Sur 0 -- -- 59
2019-08-01 09:00:00 14.4 8 Sur 13 Sur 0 -- -- 74
2019-08-01 08:00:00 11.2 10 Sur 12 Sur 0 -- -- 81
2019-08-01 07:00:00 11.8 11 Sur 13 Sudeste 0 -- -- 79
2019-08-01 06:00:00 12.2 10 Sur 14 Sur 0 -- -- 77
2019-08-01 05:00:00 15.4 4 Sur 10 Noroeste 0 -- -- 65
2019-08-01 04:00:00 17.3 4 Noroeste 10 Noroeste 0 -- -- 57
2019-08-01 03:00:00 18.5 4 Norte 8 Norte 0 -- -- 53
2019-08-01 02:00:00 19.4 4 Norte 10 Norte 0 -- -- 47
2019-08-01 01:00:00 20.1 5 Norte 8 Noroeste 0 -- -- 46
2019-08-01 00:00:00 21.7 6 Norte 11 Norte 0 -- -- 44
2019-07-31 23:00:00 22.3 6 Norte 15 Norte 0 -- -- 43
2019-07-31 22:00:00 23.6 10 Norte 22 Norte 0 -- -- 40
2019-07-31 21:00:00 24.9 17 Norte 26 Noroeste 0 -- -- 38
2019-07-31 20:00:00 25.7 18 Norte 28 Norte 0 -- -- 38
2019-07-31 19:00:00 26.7 18 Norte 26 Norte 0 -- -- 36
2019-07-31 18:00:00 27.9 13 Norte 21 Noroeste 0 -- -- 33
2019-07-31 17:00:00 27.8 15 Noroeste 27 Noroeste 0 -- -- 33
2019-07-31 16:00:00 28.8 6 Noroeste 17 Noroeste 0 -- -- 31
2019-07-31 15:00:00 28.2 7 Este 21 Noroeste 0 -- -- 32
2019-07-31 14:00:00 25.3 10 Norte 21 Nordeste 0 -- -- 38
2019-07-31 13:00:00 23.3 11 Norte 25 Noroeste 0 -- -- 42
2019-07-31 12:00:00 20.6 10 Norte 21 Norte 0 -- -- 49
2019-07-31 11:00:00 18.1 12 Norte 19 Norte 0 -- -- 55
2019-07-31 10:00:00 16 12 Norte 22 Norte 0 -- -- 59
2019-07-31 09:00:00 13.9 14 Norte 19 Norte 0 -- -- 65
2019-07-31 08:00:00 11.1 9 Norte 14 Norte 0 -- -- 70
2019-07-31 07:00:00 10.1 3 Sur 5 Nordeste 0 -- -- 69
2019-07-31 06:00:00 12.2 0 Calma 13 Noroeste 0 -- -- 62
2019-07-31 05:00:00 13.1 10 Norte 19 Noroeste 0 -- -- 60
2019-07-31 04:00:00 14 13 Norte 18 Norte 0 -- -- 56
2019-07-31 03:00:00 14.7 13 Noroeste 18 Norte 0 -- -- 52
2019-07-31 02:00:00 15.8 10 Norte 18 Norte 0 -- -- 47
2019-07-31 01:00:00 17.3 14 Norte 22 Norte 0 -- -- 43
2019-07-31 00:00:00 18.1 9 Norte 16 Norte 0 -- -- 38
2019-07-30 23:00:00 19.1 8 Norte 11 Norte 0 -- -- 34
2019-07-30 22:00:00 21.4 10 Norte 26 Norte 0 -- -- 30
2019-07-30 21:00:00 23.9 18 Norte 27 Norte 0 -- -- 26
2019-07-30 20:00:00 24.8 17 Norte 35 Norte 0 -- -- 25
2019-07-30 19:00:00 24.9 19 Norte 36 Norte 0 -- -- 26
2019-07-30 18:00:00 25.5 19 Norte 37 Noroeste 0 -- -- 24
2019-07-30 17:00:00 24.9 19 Norte 36 Norte 0 -- -- 26
2019-07-30 16:00:00 24.4 18 Nordeste 33 Norte 0 -- -- 25
2019-07-30 15:00:00 23.3 19 Nordeste 37 Norte 0 -- -- 28
2019-07-30 14:00:00 21.9 19 Norte 33 Norte 0 -- -- 35
2019-07-30 13:00:00 20 18 Nordeste 36 Norte 0 -- -- 41
2019-07-30 12:00:00 17.8 18 Norte 33 Norte 0 -- -- 48
2019-07-30 11:00:00 15.2 16 Nordeste 30 Norte 0 -- -- 59
2019-07-30 10:00:00 12.8 17 Norte 31 Norte 0 -- -- 71
2019-07-30 09:00:00 10.7 13 Norte 18 Norte 0 -- -- 84
2019-07-30 08:00:00 9.5 11 Norte 15 Norte 0 -- -- 86
2019-07-30 07:00:00 9.2 5 Nordeste 13 Norte 0 -- -- 84
2019-07-30 06:00:00 10.2 9 Norte 18 Norte 0 -- -- 81
2019-07-30 05:00:00 10.9 13 Norte 21 Norte 0 -- -- 76
2019-07-30 04:00:00 11.2 13 Norte 22 Norte 0 -- -- 74
2019-07-30 03:00:00 12.4 13 Norte 19 Norte 0 -- -- 70
2019-07-30 02:00:00 12.6 10 Norte 23 Noroeste 0 -- -- 71
2019-07-30 01:00:00 13.6 15 Noroeste 24 Noroeste 0 -- -- 67
2019-07-30 00:00:00 14.8 11 Noroeste 22 Noroeste 0 -- -- 62
2019-07-29 23:00:00 16.3 15 Noroeste 29 Noroeste 0 -- -- 56
2019-07-29 22:00:00 18.1 18 Noroeste 31 Noroeste 0 -- -- 48
2019-07-29 21:00:00 20.5 22 Noroeste 32 Noroeste 0 -- -- 40
2019-07-29 20:00:00 22.2 24 Noroeste 41 Noroeste 0 -- -- 35
2019-07-29 19:00:00 23.7 21 Noroeste 37 Noroeste 0 -- -- 33
2019-07-29 18:00:00 24 17 Noroeste 32 Noroeste 0 -- -- 32
2019-07-29 17:00:00 24.5 19 Noroeste 32 Noroeste 0 -- -- 31
2019-07-29 16:00:00 23.5 19 Noroeste 36 Oeste 0 -- -- 40
2019-07-29 15:00:00 23 19 Noroeste 30 Noroeste 0 -- -- 40
2019-07-29 14:00:00 22.1 14 Noroeste 29 Norte 0 -- -- 46
2019-07-29 13:00:00 20.9 14 Oeste 23 Noroeste 0 -- -- 58
2019-07-29 12:00:00 18.2 9 Noroeste 22 Norte 0 -- -- 67
2019-07-29 11:00:00 16.6 11 Norte 18 Noroeste 0 -- -- 74
2019-07-29 10:00:00 15.9 3 Sudoeste 8 Oeste 0 -- -- 71
2019-07-29 09:00:00 12.9 5 Sur 11 Sur 0 -- -- 75
2019-07-29 08:00:00 10.5 9 Sur 12 Sur 0 -- -- 85
2019-07-29 07:00:00 11.8 3 Sudoeste 8 Oeste 0 -- -- 67
2019-07-29 06:00:00 13 3 Norte 8 Norte 0 -- -- 62
2019-07-29 05:00:00 12.6 4 Nordeste 7 Este 0 -- -- 69
2019-07-29 04:00:00 13.9 4 Este 9 Norte 0 -- -- 68
2019-07-29 03:00:00 14.4 11 Norte 17 Norte 0 -- -- 67
2019-07-29 02:00:00 16.4 10 Norte 15 Norte 0 -- -- 60
2019-07-29 01:00:00 17.6 6 Norte 8 Norte 0 -- -- 64
2019-07-29 00:00:00 19.2 2 Sudeste 20 Noroeste 0 -- -- 61
2019-07-28 23:00:00 21.2 13 Noroeste 25 Noroeste 0 -- -- 54
2019-07-28 22:00:00 23.8 15 Noroeste 25 Oeste 0 -- -- 40
2019-07-28 21:00:00 26.4 15 Noroeste 25 Noroeste 0 -- -- 32
2019-07-28 20:00:00 28.1 12 Noroeste 26 Oeste 0 -- -- 28
2019-07-28 19:00:00 28.1 15 Norte 32 Norte 0 -- -- 28
2019-07-28 18:00:00 28.6 13 Noroeste 23 Noroeste 0 -- -- 29
2019-07-28 17:00:00 27.7 9 Sur 34 Norte 0 -- -- 31
2019-07-28 16:00:00 27.6 11 Noroeste 27 Noroeste 0 -- -- 32
2019-07-28 15:00:00 26.7 10 Oeste 30 Noroeste 0 -- -- 34
2019-07-28 14:00:00 25.7 14 Noroeste 33 Oeste 0 -- -- 38
2019-07-28 13:00:00 23.9 11 Nordeste 24 Sur 0 -- -- 45
2019-07-28 12:00:00 22.4 6 Sur 14 Sur 0 -- -- 51
2019-07-28 11:00:00 19.7 5 Norte 9 Norte 0 -- -- 62
2019-07-28 10:00:00 16.7 4 Oeste 7 Sur 0 -- -- 74
2019-07-28 09:00:00 13.4 5 Sur 8 Sur 0 -- -- 89
2019-07-28 08:00:00 11.2 4 Sur 6 Sudeste 0 -- -- 91
2019-07-28 07:00:00 11.6 3 Oeste 8 Noroeste 0 -- -- 88
2019-07-28 06:00:00 12.8 3 Noroeste 12 Noroeste 0 -- -- 85
2019-07-28 05:00:00 13.6 9 Norte 12 Norte 0 -- -- 84
2019-07-28 04:00:00 14 8 Noroeste 10 Norte 0 -- -- 82
2019-07-28 03:00:00 15.5 4 Norte 15 Norte 0 -- -- 74
2019-07-28 02:00:00 16.7 12 Norte 21 Norte 0 -- -- 70
2019-07-28 01:00:00 17.2 11 Noroeste 26 Noroeste 0 -- -- 70
2019-07-28 00:00:00 17.6 10 Noroeste 17 Noroeste 0 -- -- 74
2019-07-27 23:00:00 18.7 12 Noroeste 23 Noroeste 0 -- -- 70
2019-07-26 12:00:00 -- -- -- -- -- -- -- -- --
2019-07-26 11:00:00 16.8 14 Norte 27 Norte 0 -- -- 65
2019-07-26 10:00:00 15.3 16 Noroeste 28 Noroeste 0 -- -- 70
2019-07-26 09:00:00 13.6 9 Noroeste 15 Norte 0 -- -- 81
2019-07-26 08:00:00 11.8 7 Noroeste 18 Noroeste 0 -- -- 87
2019-07-26 07:00:00 12.9 14 Noroeste 23 Norte 0 -- -- 82
2019-07-26 06:00:00 14.2 15 Norte 23 Noroeste 0 -- -- 79
2019-07-26 05:00:00 15.2 14 Noroeste 26 Noroeste 0 -- -- 79
2019-07-26 04:00:00 15 15 Norte 28 Norte 0 -- -- 90
2019-07-26 03:00:00 16.6 15 Norte 24 Norte 0 -- -- 82
2019-07-26 02:00:00 17 12 Noroeste 20 Noroeste 0 -- -- 87
2019-07-26 01:00:00 17.2 12 Noroeste 26 Noroeste 0 -- -- 87
2019-07-26 00:00:00 17.9 17 Noroeste 26 Noroeste 0 -- -- 85
2019-07-25 23:00:00 18.9 14 Noroeste 27 Noroeste 0 -- -- 82
2019-07-25 22:00:00 20.4 14 Noroeste 27 Noroeste 0 -- -- 75
2019-07-25 21:00:00 22.1 14 Noroeste 28 Noroeste 0 -- -- 67
2019-07-25 20:00:00 24.9 18 Noroeste 30 Noroeste 0 -- -- 52
2019-07-25 19:00:00 28.4 23 Sur 35 Sudoeste 0 -- -- 37
2019-07-25 18:00:00 29.3 19 Sur 36 Sur 0 -- -- 30
2019-07-25 17:00:00 29.7 23 Sudoeste 40 Sur 0 -- -- 29
2019-07-25 16:00:00 29.7 20 Sudoeste 37 Sudoeste 0 -- -- 28
2019-07-25 15:00:00 29.2 20 Sur 39 Sur 0 -- -- 31
2019-07-25 14:00:00 28.4 25 Sur 40 Sur 0 -- -- 32
2019-07-25 13:00:00 28.1 24 Sur 39 Sur 0 -- -- 31
2019-07-25 12:00:00 26.8 20 Sur 30 Sur 0 -- -- 33
2019-07-25 11:00:00 24.3 10 Sudoeste 17 Sur 0 -- -- 41
2019-07-25 10:00:00 21.8 2 Nordeste 9 Norte 0 -- -- 57
2019-07-25 09:00:00 18.3 4 Norte 12 Noroeste 0 -- -- 68
2019-07-25 08:00:00 15 6 Norte 10 Norte 0 -- -- 76
2019-07-25 07:00:00 13.6 5 Sur 14 Sudeste 0 -- -- 83
2019-07-25 06:00:00 14.6 6 Sur 12 Sur 0 -- -- 80
2019-07-25 05:00:00 16 5 Sur 8 Sur 0 -- -- 68
2019-07-25 04:00:00 17.7 3 Nordeste 7 Este 0 -- -- 59
2019-07-25 03:00:00 18.5 6 Este 9 Este 0 -- -- 55
2019-07-25 02:00:00 20.2 6 Nordeste 10 Nordeste 0 -- -- 53
2019-07-25 01:00:00 21.3 8 Norte 13 Norte 0 -- -- 49
2019-07-25 00:00:00 22.3 6 Nordeste 9 Norte 0 -- -- 48
2019-07-24 23:00:00 23.4 3 Norte 17 Noroeste 0 -- -- 49
2019-07-24 22:00:00 25.8 12 Noroeste 28 Noroeste 0 -- -- 43
2019-07-24 21:00:00 30.8 13 Sudoeste 32 Sur 0 -- -- 30
2019-07-24 20:00:00 32.1 12 Sur 30 Sur 0 -- -- 29
2019-07-24 19:00:00 32.6 22 Sur 39 Sur 0 -- -- 28
2019-07-24 18:00:00 32.7 23 Sudoeste 39 Sur 0 -- -- 29
2019-07-24 17:00:00 32.5 17 Sur 38 Sur 0 -- -- 31
2019-07-24 16:00:00 31.9 24 Sur 42 Sur 0 -- -- 30
2019-07-24 15:00:00 31.8 23 Sudoeste 42 Sur 0 -- -- 33
2019-07-24 14:00:00 31.4 20 Sudoeste 34 Sur 0 -- -- 33
2019-07-24 13:00:00 30.1 15 Sur 33 Sur 0 -- -- 35
2019-07-24 12:00:00 29.1 15 Sur 32 Sur 0 -- -- 38
2019-07-24 11:00:00 27.7 22 Sur 32 Sur 0 -- -- 41
2019-07-24 10:00:00 25.5 14 Sur 25 Sur 0 -- -- 48
2019-07-24 09:00:00 20.3 9 Sur 14 Sur 0 -- -- 69
2019-07-24 08:00:00 16.9 3 Este 11 Sur 0 -- -- 84
2019-07-24 07:00:00 18 8 Sur 12 Sur 0 -- -- 79
2019-07-24 06:00:00 16.9 8 Sur 14 Sur 0 -- -- 87
2019-07-24 05:00:00 18 7 Sur 14 Sur 0 -- -- 84
2019-07-24 04:00:00 18.3 9 Sur 13 Sur 0 -- -- 83
2019-07-24 03:00:00 19.3 8 Sur 12 Sur 0 -- -- 80
2019-07-24 02:00:00 20.6 3 Sudeste 8 Sur 0 -- -- 74
2019-07-24 01:00:00 21.6 3 Noroeste 12 Noroeste 0 -- -- 69
2019-07-24 00:00:00 22.4 4 Noroeste 13 Noroeste 0 -- -- 66
2019-07-23 23:00:00 23.6 3 Sudoeste 13 Noroeste 0 -- -- 61
2019-07-23 22:00:00 24.9 10 Noroeste 31 Noroeste 0 -- -- 57
2019-07-23 21:00:00 27.5 19 Noroeste 31 Noroeste 0 -- -- 52
2019-07-23 20:00:00 31.5 17 Sudoeste 32 Sudoeste 0 -- -- 34
2019-07-23 19:00:00 32.8 17 Sudoeste 36 Sudoeste 0 -- -- 35
2019-07-23 18:00:00 32.9 20 Sur 33 Sur 0 -- -- 35
2019-07-23 17:00:00 32 14 Sur 32 Sur 0 -- -- 38
2019-07-23 16:00:00 31.1 19 Sur 39 Sur 0 -- -- 38
2019-07-23 15:00:00 31 24 Sur 43 Sudeste 0 -- -- 37
2019-07-23 14:00:00 30.5 21 Sur 41 Sudeste 0 -- -- 37
2019-07-23 13:00:00 29.4 20 Sur 39 Sur 0 -- -- 39
2019-07-23 12:00:00 28.1 22 Sudeste 39 Sur 0 -- -- 42
2019-07-23 11:00:00 26 15 Sur 25 Sur 0 -- -- 52
2019-07-23 10:00:00 23.9 7 Sudeste 10 Sudeste 0 -- -- 67
2019-07-23 09:00:00 20.5 6 Sur 9 Sur 0 -- -- 77
2019-07-23 08:00:00 19 0 Calma 13 Nordeste 0 -- -- 80
2019-07-23 07:00:00 18.9 10 Este 17 Este 0 -- -- 81
2019-07-23 06:00:00 19.1 12 Sudeste 23 Este 0 -- -- 83
2019-07-23 05:00:00 19 10 Sudeste 21 Sudoeste 0.4 -- -- 83
2019-07-23 04:00:00 19.9 13 Oeste 38 Sur 6 -- -- 79
2019-07-23 03:00:00 22.6 22 Oeste 37 Oeste 0 -- -- 61
2019-07-23 02:00:00 22.9 7 Sur 12 Sur 0 -- -- 54
2019-07-23 01:00:00 24.7 9 Norte 14 Norte 0 -- -- 49
2019-07-23 00:00:00 25.6 7 Norte 17 Norte 0 -- -- 45
2019-07-22 23:00:00 27.4 15 Norte 25 Norte 0 -- -- 41
2019-07-22 22:00:00 29.7 13 Norte 22 Norte 0 -- -- 34
2019-07-22 21:00:00 33.2 8 Sudoeste 21 Sur 0 -- -- 30
2019-07-22 20:00:00 34.6 12 Sur 28 Sur 0 -- -- 28
2019-07-22 19:00:00 35.3 17 Sur 46 Sur 0 -- -- 26
2019-07-22 18:00:00 36.1 20 Sudoeste 33 Sur 0 -- -- 26
2019-07-22 17:00:00 36.1 17 Sudoeste 28 Sudoeste 0 -- -- 25
2019-07-22 16:00:00 35.8 14 Sudoeste 31 Sur 0 -- -- 26
2019-07-22 15:00:00 35.1 11 Sur 23 Sur 0 -- -- 25
2019-07-22 14:00:00 34.3 9 Sur 20 Sur 0 -- -- 27
2019-07-22 13:00:00 32.7 13 Sudeste 26 Sur 0 -- -- 29
2019-07-22 12:00:00 31.3 18 Sur 28 Sur 0 -- -- 32
2019-07-22 11:00:00 28.9 10 Sur 18 Sur 0 -- -- 38
2019-07-22 10:00:00 24.7 6 Sudeste 11 Sudeste 0 -- -- 53
2019-07-22 09:00:00 20.7 5 Sudeste 11 Sudeste 0 -- -- 69
2019-07-22 08:00:00 17.6 6 Sudeste 13 Sudeste 0 -- -- 76
2019-07-22 07:00:00 16.6 9 Sur 14 Sur 0 -- -- 79
2019-07-22 06:00:00 16.8 8 Sur 14 Sur 0 -- -- 79
2019-07-22 05:00:00 16.7 10 Sur 14 Sur 0 -- -- 76
2019-07-22 04:00:00 18.2 8 Sur 11 Sur 0 -- -- 72
2019-07-22 03:00:00 19.4 8 Sur 10 Sur 0 -- -- 65
2019-07-22 02:00:00 21.5 9 Sur 12 Sur 0 -- -- 59
2019-07-22 01:00:00 24.2 4 Norte 9 Noroeste 0 -- -- 56
2019-07-22 00:00:00 25.1 5 Noroeste 14 Noroeste 0 -- -- 49
2019-07-21 23:00:00 26.9 6 Noroeste 10 Oeste 0 -- -- 34
2019-07-21 22:00:00 30.1 5 Nordeste 19 Noroeste 0 -- -- 29
2019-07-21 21:00:00 32.7 9 Sudoeste 18 Sur 0 -- -- 22
2019-07-21 20:00:00 33.8 8 Sur 24 Sur 0 -- -- 23
2019-07-21 19:00:00 34.3 12 Sur 28 Sur 0 -- -- 22
2019-07-21 18:00:00 34.5 13 Sur 27 Sur 0 -- -- 21
2019-07-21 17:00:00 34.4 10 Sur 25 Sur 0 -- -- 21
2019-07-21 16:00:00 34.1 12 Sudoeste 29 Sudoeste 0 -- -- 21
2019-07-21 15:00:00 32.3 7 Norte 24 Nordeste 0 -- -- 33
2019-07-21 14:00:00 30.4 14 Norte 23 Norte 0 -- -- 38
2019-07-21 13:00:00 28.3 9 Norte 18 Norte 0 -- -- 45
2019-07-21 12:00:00 25.7 6 Norte 14 Norte 0 -- -- 52
2019-07-21 11:00:00 22.5 4 Norte 10 Noroeste 0 -- -- 62
2019-07-21 10:00:00 19.8 0 Calma 10 Noroeste 0 -- -- 71
2019-07-21 09:00:00 16.9 5 Noroeste 9 Noroeste 0 -- -- 87
2019-07-21 08:00:00 13.8 5 Sur 7 Sur 0 -- -- 92
2019-07-21 07:00:00 14.4 4 Sur 6 Sur 0 -- -- 89
2019-07-21 06:00:00 15.3 2 Sur 5 Sudoeste 0 -- -- 87
2019-07-21 05:00:00 16.1 5 Sudeste 6 Sudeste 0 -- -- 84
2019-07-21 04:00:00 17.4 3 Norte 7 Norte 0 -- -- 81
2019-07-21 03:00:00 17.7 2 Sudoeste 5 Sur 0 -- -- 79
2019-07-21 02:00:00 19.2 4 Noroeste 7 Noroeste 0 -- -- 73
2019-07-21 01:00:00 20.1 6 Noroeste 16 Noroeste 0 -- -- 71
2019-07-21 00:00:00 21.5 12 Noroeste 23 Noroeste 0 -- -- 67
2019-07-20 23:00:00 23.7 18 Noroeste 27 Noroeste 0 -- -- 61
2019-07-20 22:00:00 26.4 18 Noroeste 30 Noroeste 0 -- -- 52
2019-07-20 21:00:00 29.2 19 Noroeste 29 Noroeste 0 -- -- 36
2019-07-20 20:00:00 31.5 14 Norte 23 Noroeste 0 -- -- 30
2019-07-20 19:00:00 32.3 14 Noroeste 24 Oeste 0 -- -- 27
2019-07-20 18:00:00 31.9 14 Noroeste 27 Norte 0 -- -- 26
2019-07-20 17:00:00 31.3 12 Norte 27 Norte 0 -- -- 28
2019-07-20 16:00:00 30.9 11 Noroeste 28 Noroeste 0 -- -- 29
2019-07-20 15:00:00 30.1 12 Noroeste 22 Noroeste 0 -- -- 30
2019-07-20 14:00:00 28.9 9 Noroeste 18 Noroeste 0 -- -- 36
2019-07-20 13:00:00 26.4 8 Norte 19 Nordeste 0 -- -- 43
2019-07-20 12:00:00 24.2 9 Nordeste 19 Nordeste 0 -- -- 52
2019-07-20 11:00:00 22 8 Norte 16 Nordeste 0 -- -- 59
2019-07-20 10:00:00 20 6 Norte 12 Norte 0 -- -- 64
2019-07-20 09:00:00 17.7 2 Norte 4 Norte 0 -- -- 70
2019-07-20 08:00:00 14.9 3 Sur 5 Sur 0 -- -- 78
2019-07-20 07:00:00 15.8 3 Norte 7 Sur 0 -- -- 73
2019-07-20 06:00:00 16.5 3 Noroeste 9 Sudoeste 0 -- -- 71
2019-07-20 05:00:00 17.5 3 Noroeste 10 Noroeste 0 -- -- 68
2019-07-20 04:00:00 18 4 Noroeste 9 Noroeste 0 -- -- 66
2019-07-20 03:00:00 18.8 3 Sudoeste 8 Sudoeste 0 -- -- 64
2019-07-20 02:00:00 20.1 0 Calma 9 Oeste 0 -- -- 62
2019-07-20 01:00:00 21.3 6 Noroeste 15 Noroeste 0 -- -- 59
2019-07-20 00:00:00 23 11 Noroeste 20 Noroeste 0 -- -- 57
2019-07-19 23:00:00 24.9 10 Oeste 27 Noroeste 0 -- -- 51
2019-07-19 22:00:00 27 18 Noroeste 29 Noroeste 0 -- -- 43
2019-07-19 21:00:00 29.8 19 Noroeste 32 Oeste 0 -- -- 36
2019-07-19 20:00:00 32.4 23 Noroeste 32 Noroeste 0 -- -- 32
2019-07-19 19:00:00 33.5 11 Sur 25 Sudoeste 0 -- -- 25
2019-07-19 18:00:00 33.5 9 Sudoeste 32 Sur 0 -- -- 25
2019-07-19 17:00:00 33.7 15 Sudoeste 28 Sur 0 -- -- 25
2019-07-19 16:00:00 33.6 16 Sur 37 Sur 0 -- -- 25
2019-07-19 15:00:00 32.9 21 Sudoeste 35 Sur 0 -- -- 25
2019-07-19 14:00:00 32.2 16 Sur 28 Sur 0 -- -- 30
2019-07-19 13:00:00 31 7 Oeste 15 Sudoeste 0 -- -- 33
2019-07-19 12:00:00 28.5 3 Oeste 12 Norte 0 -- -- 41
2019-07-19 11:00:00 25.7 5 Noroeste 10 Norte 0 -- -- 48
2019-07-19 10:00:00 22.6 3 Oeste 10 Sur 0 -- -- 54
2019-07-19 09:00:00 18 8 Sur 13 Sur 0 -- -- 70
2019-07-19 08:00:00 14.4 11 Sur 14 Sur 0 -- -- 80
2019-07-19 07:00:00 14.4 8 Sur 14 Sur 0 -- -- 79
2019-07-19 06:00:00 14.6 11 Sur 14 Sur 0 -- -- 76
2019-07-19 05:00:00 16.4 0 Calma 4 Norte 0 -- -- 67
2019-07-19 04:00:00 18.4 0 Calma 5 Sur 0 -- -- 59
2019-07-19 03:00:00 20.8 0 Calma 8 Noroeste 0 -- -- 49
2019-07-19 02:00:00 21.7 4 Noroeste 10 Noroeste 0 -- -- 44
2019-07-19 01:00:00 22.3 6 Noroeste 13 Noroeste 0 -- -- 38
2019-07-19 00:00:00 24.8 8 Norte 16 Norte 0 -- -- 34